Time;durP1;ratioP1;P1;durP2;ratioP2;P2;SDS_P1;SDS_P2;PMS_P1;PMS_P2;Temp;Humidity;BMP_temperature;BMP_pressure;BME280_temperature;BME280_humidity;BME280_pressure;Samples;Min_cycle;Max_cycle;Signal;HPM_P1;HPM_P2
2022/01/16 00:04:30;;;;;;;51.38;23.27;;;;;;;-4.20;100.00;95519.28;4994084;28;20022;-63
2022/01/16 00:06:55;;;;;;;84.20;23.02;;;;;;;-4.19;100.00;95542.66;4993369;28;20053;-62
2022/01/16 00:09:21;;;;;;;90.18;22.67;;;;;;;-4.17;100.00;95543.31;5005068;28;20101;-60
2022/01/16 00:11:50;;;;;;;118.88;23.67;;;;;;;-4.16;100.00;95552.78;4994018;28;20053;-62
2022/01/16 00:14:15;;;;;;;86.00;23.60;;;;;;;-4.14;100.00;95560.47;4994435;28;20022;-63
2022/01/16 00:16:41;;;;;;;105.43;24.15;;;;;;;-144.43;100.00;64487.81;4993527;28;20037;-62
2022/01/16 00:19:06;;;;;;;74.07;22.98;;;;;;;-4.11;100.00;95510.47;4992503;28;20409;-62
2022/01/16 00:21:36;;;;;;;81.78;24.40;;;;;;;-4.10;100.00;95506.84;4993755;28;20109;-63
2022/01/16 00:24:03;;;;;;;90.75;23.35;;;;;;;-4.13;100.00;95525.47;4994027;28;20034;-62
2022/01/16 00:26:28;;;;;;;80.45;23.70;;;;;;;-4.13;100.00;95521.06;4993600;28;20101;-62
2022/01/16 00:28:54;;;;;;;111.90;22.02;;;;;;;-4.15;100.00;95493.44;4993553;28;20109;-61
2022/01/16 00:31:23;;;;;;;158.30;24.02;;;;;;;-4.17;100.00;95508.47;4993333;28;20034;-62
2022/01/16 00:33:49;;;;;;;96.50;23.70;;;;;;;-4.14;100.00;95539.53;4993634;28;20080;-61
2022/01/16 00:36:18;;;;;;;124.82;24.08;;;;;;;-4.14;100.00;95552.63;4993506;28;20026;-62
2022/01/16 00:38:45;;;;;;;121.22;24.88;;;;;;;-4.11;100.00;95545.28;4993429;28;20034;-62
2022/01/16 00:41:17;;;;;;;90.22;22.17;;;;;;;-4.07;100.00;95516.97;4992952;28;20053;-64
2022/01/16 00:43:43;;;;;;;86.80;22.77;;;;;;;-4.06;100.00;95528.25;4993134;28;20095;-64
2022/01/16 00:46:09;;;;;;;74.95;23.85;;;;;;;-4.05;100.00;95528.09;4991854;28;20077;-62
2022/01/16 00:48:35;;;;;;;96.68;23.13;;;;;;;-4.03;100.00;95546.25;4993299;28;20022;-59
2022/01/16 00:51:00;;;;;;;70.90;23.08;;;;;;;-4.04;100.00;95526.28;4993129;28;20157;-61
2022/01/16 00:53:25;;;;;;;72.68;23.60;;;;;;;-4.03;100.00;95543.63;4993042;28;20022;-58
2022/01/16 00:55:51;;;;;;;86.07;23.17;;;;;;;-4.04;100.00;95534.97;4993038;28;20413;-62
2022/01/16 00:58:16;;;;;;;105.15;23.95;;;;;;;-4.04;100.00;95540.19;4992881;28;20069;-59
2022/01/16 01:00:42;;;;;;;60.75;22.42;;;;;;;-4.05;100.00;95542.97;4993211;28;20037;-59
2022/01/16 01:03:07;;;;;;;122.43;24.15;;;;;;;-4.07;100.00;95552.78;4993334;28;20037;-60
2022/01/16 01:05:35;;;;;;;87.28;22.92;;;;;;;-4.12;100.00;95561.97;4991281;28;20068;-59
2022/01/16 01:08:02;;;;;;;106.22;21.23;;;;;;;-4.20;100.00;95571.59;5002742;28;20093;-59
2022/01/16 01:10:32;;;;;;;100.03;22.35;;;;;;;-4.25;100.00;95568.63;4996596;28;20034;-60
2022/01/16 01:13:09;;;;;;;63.53;21.98;;;;;;;-4.26;100.00;95528.59;4993131;28;20053;-61
2022/01/16 01:16:14;;;;;;;53.90;21.20;;;;;;;-4.30;100.00;95487.25;4991943;28;20026;-59
2022/01/16 01:18:26;;;;;;;124.40;22.00;;;;;;;-4.32;100.00;95476.94;4991826;28;20038;-60
2022/01/16 01:20:53;;;;;;;141.57;23.13;;;;;;;-4.31;100.00;95485.59;4991094;28;20029;-61
2022/01/16 01:23:18;;;;;;;112.90;22.92;;;;;;;-4.31;100.00;95494.25;4992861;28;20084;-63
2022/01/16 01:25:43;;;;;;;111.70;22.15;;;;;;;-4.27;100.00;95497.38;4992573;28;20146;-62
2022/01/16 01:28:11;;;;;;;97.38;22.17;;;;;;;-4.25;100.00;95508.47;4992312;28;20077;-62
2022/01/16 01:30:38;;;;;;;92.95;21.70;;;;;;;-4.28;100.00;95516.66;4992452;28;20033;-60
2022/01/16 01:33:03;;;;;;;82.10;21.27;;;;;;;-4.25;100.00;95539.84;4991037;28;20022;-58
2022/01/16 01:35:30;;;;;;;64.63;22.20;;;;;;;-4.23;100.00;95551.00;4992168;28;20499;-63
2022/01/16 01:37:55;;;;;;;60.78;21.35;;;;;;;-4.23;100.00;95545.78;4990814;28;20027;-63
2022/01/16 01:40:24;;;;;;;76.72;21.33;;;;;;;-4.24;100.00;95550.16;4991965;28;20058;-58
2022/01/16 01:43:05;;;;;;;58.15;23.10;;;;;;;-4.21;100.00;95542.00;4990767;28;20034;-64
2022/01/16 01:51:21;;;;;;;50.70;22.33;;;;;;;-4.23;100.00;95557.06;4991869;28;20540;-64
2022/01/16 01:53:46;;;;;;;66.13;22.17;;;;;;;-4.21;100.00;95552.47;4991919;28;20022;-59
2022/01/16 01:56:17;;;;;;;114.97;22.42;;;;;;;-4.18;100.00;95557.38;4990456;28;20489;-61
2022/01/16 01:58:43;;;;;;;112.28;23.38;;;;;;;-4.14;100.00;95563.09;4991705;28;20022;-63
2022/01/16 02:01:08;;;;;;;81.68;23.65;;;;;;;-4.12;100.00;95569.81;4991713;28;20033;-59
2022/01/16 02:03:42;;;;;;;91.68;24.35;;;;;;;-4.09;100.00;95589.59;4992149;28;20030;-62
2022/01/16 02:06:15;;;;;;;68.53;22.77;;;;;;;-4.05;100.00;95583.03;4991815;28;20027;-56
2022/01/16 02:08:47;;;;;;;121.38;25.33;;;;;;;-4.03;100.00;95590.72;5004784;28;20033;-61
2022/01/16 02:11:15;;;;;;;106.30;23.73;;;;;;;-4.02;100.00;95587.13;4990239;28;20022;-55
2022/01/16 02:35:05;;;;;;;105.68;22.45;;;;;;;-4.04;100.00;95542.81;4991037;28;20030;-64
2022/01/16 02:37:30;;;;;;;105.93;22.52;;;;;;;-4.06;100.00;95549.19;4990190;28;20505;-58
2022/01/16 02:40:03;;;;;;;79.68;23.02;;;;;;;-4.08;100.00;95541.50;4990949;28;20133;-62
2022/01/16 02:42:35;;;;;;;83.45;23.75;;;;;;;-4.10;100.00;95546.91;4990835;28;20061;-64
2022/01/16 02:45:03;;;;;;;70.68;21.48;;;;;;;-4.10;100.00;95539.06;4991059;28;20477;-61
2022/01/16 02:47:28;;;;;;;74.78;21.73;;;;;;;-4.13;100.00;95533.31;4989900;28;20030;-60
2022/01/16 02:49:54;;;;;;;113.82;21.75;;;;;;;-4.17;100.00;95532.84;4990913;28;20018;-60
2022/01/16 02:52:39;;;;;;;73.30;20.52;;;;;;;-4.17;100.00;95534.63;4990965;28;20167;-63
2022/01/16 02:55:06;;;;;;;103.18;20.88;;;;;;;-4.22;100.00;95522.06;4991047;28;20072;-61
2022/01/16 02:57:31;;;;;;;88.18;22.00;;;;;;;-4.25;100.00;95518.94;4989432;28;20026;-61
2022/01/16 02:59:59;;;;;;;76.88;20.48;;;;;;;-4.25;100.00;95521.56;4989604;28;20029;-58
2022/01/16 03:02:25;;;;;;;102.65;21.67;;;;;;;-4.25;100.00;95529.41;4990736;28;20092;-60
2022/01/16 03:04:51;;;;;;;132.90;22.48;;;;;;;-4.25;100.00;95534.63;4989486;28;20037;-59
2022/01/16 03:07:17;;;;;;;73.85;19.83;;;;;;;-4.29;100.00;95533.31;4994182;28;20020;-60
2022/01/16 03:10:03;;;;;;;66.22;19.08;;;;;;;-4.29;100.00;95515.03;5000039;28;20049;-63
2022/01/16 03:12:28;;;;;;;95.75;19.73;;;;;;;-4.31;100.00;95520.41;4991161;28;20025;-59
2022/01/16 03:14:53;;;;;;;101.57;21.42;;;;;;;-4.34;100.00;95517.28;4989317;28;20117;-59
2022/01/16 03:17:35;;;;;;;46.75;19.73;;;;;;;-4.33;100.00;95511.94;4989326;28;20034;-61
2022/01/16 03:22:45;;;;;;;111.53;21.30;;;;;;;-4.28;100.00;95517.47;4991107;28;20037;-56
2022/01/16 03:25:11;;;;;;;72.65;19.33;;;;;;;-4.31;100.00;95512.56;4990877;28;20401;-59
2022/01/16 03:27:38;;;;;;;146.52;21.50;;;;;;;-4.39;100.00;95523.84;4991581;28;20077;-59
2022/01/16 03:30:04;;;;;;;128.70;21.20;;;;;;;-4.44;100.00;95512.25;4997742;28;20029;-56
2022/01/16 03:32:29;;;;;;;100.38;21.38;;;;;;;-4.49;100.00;95512.72;5013034;28;20033;-55
2022/01/16 03:34:57;;;;;;;131.55;19.52;;;;;;;-4.53;100.00;95506.19;5014105;28;20029;-60
2022/01/16 03:37:22;;;;;;;65.97;19.73;;;;;;;-4.54;100.00;95511.56;5014176;28;20018;-61
2022/01/16 03:39:48;;;;;;;68.15;21.33;;;;;;;-4.54;100.00;95515.00;5014436;28;20053;-60
2022/01/16 03:42:14;;;;;;;55.80;20.80;;;;;;;-4.52;100.00;95520.88;5014868;28;20623;-59
2022/01/16 03:44:39;;;;;;;66.72;19.70;;;;;;;-4.47;100.00;95521.19;5014740;28;20025;-60
2022/01/16 03:47:05;;;;;;;82.20;19.85;;;;;;;-4.45;100.00;95521.88;5014803;28;20554;-61
2022/01/16 03:49:31;;;;;;;89.97;20.33;;;;;;;-4.48;100.00;95526.59;5014583;28;20473;-61
2022/01/16 03:52:00;;;;;;;53.70;19.50;;;;;;;-4.48;100.00;95529.22;5013486;28;20080;-64
2022/01/16 03:54:29;;;;;;;60.55;17.75;;;;;;;-144.43;100.00;64487.81;5014531;28;20053;-59
2022/01/16 03:56:55;;;;;;;59.50;18.75;;;;;;;-144.43;100.00;64487.81;5013175;28;20034;-62
2022/01/16 03:59:21;;;;;;;74.32;19.45;;;;;;;-4.50;100.00;95503.22;5013070;28;20029;-60
2022/01/16 04:01:47;;;;;;;58.90;19.52;;;;;;;-4.47;100.00;95509.94;5013185;28;20029;-58
2022/01/16 04:04:12;;;;;;;114.65;20.70;;;;;;;-4.47;100.00;95521.19;5014499;28;20140;-58
2022/01/16 04:06:38;;;;;;;92.65;20.00;;;;;;;-4.46;100.00;95530.69;5014487;28;20101;-58
2022/01/16 04:09:04;;;;;;;99.10;19.05;;;;;;;-4.46;100.00;95538.53;5009694;28;20034;-60
2022/01/16 04:11:30;;;;;;;51.60;19.25;;;;;;;-4.42;100.00;95533.81;4994776;28;20172;-57
2022/01/16 04:14:09;;;;;;;97.28;20.67;;;;;;;-4.44;100.00;95538.38;4994736;28;20026;-63
2022/01/16 04:16:36;;;;;;;95.75;19.30;;;;;;;-4.41;100.00;95544.09;4994509;28;20389;-61
2022/01/16 04:19:03;;;;;;;98.65;20.17;;;;;;;-4.40;100.00;95531.84;4994481;28;20498;-59
2022/01/16 04:21:28;;;;;;;78.80;19.50;;;;;;;-4.39;100.00;95528.25;4994730;28;20054;-59
2022/01/16 04:23:55;;;;;;;84.70;19.88;;;;;;;-144.43;100.00;64487.81;4994499;28;20053;-60
2022/01/16 04:26:21;;;;;;;87.63;18.95;;;;;;;-144.43;100.00;64487.81;4994506;28;20026;-61
2022/01/16 04:28:47;;;;;;;98.22;19.75;;;;;;;-144.43;100.00;64487.81;4993073;28;20117;-57
2022/01/16 04:31:16;;;;;;;92.25;20.13;;;;;;;-144.43;100.00;64487.81;4993027;28;20469;-57
2022/01/16 04:33:42;;;;;;;43.10;18.35;;;;;;;-144.43;100.00;64487.81;4994078;28;20042;-60
2022/01/16 04:36:08;;;;;;;69.40;18.45;;;;;;;-144.43;100.00;64487.81;4994244;28;20032;-60
2022/01/16 04:38:36;;;;;;;111.93;19.08;;;;;;;-4.38;100.00;95493.28;4994115;28;20477;-59
2022/01/16 04:43:48;;;;;;;83.43;18.73;;;;;;;-4.37;100.00;95497.53;4994408;28;20413;-59
2022/01/16 04:46:15;;;;;;;92.18;19.42;;;;;;;-4.34;100.00;95507.69;4994065;28;20033;-59
2022/01/16 04:48:41;;;;;;;121.35;20.75;;;;;;;-4.32;100.00;95505.72;4994286;28;20116;-55
2022/01/16 04:51:06;;;;;;;75.75;19.88;;;;;;;-4.31;100.00;95502.13;4992978;28;20054;-63
2022/01/16 04:53:31;;;;;;;88.65;19.67;;;;;;;-4.29;100.00;95504.56;4994190;28;20026;-61
2022/01/16 04:55:57;;;;;;;92.70;18.23;;;;;;;-4.33;100.00;95511.94;4992496;28;20462;-57
2022/01/16 04:58:23;;;;;;;127.85;18.73;;;;;;;-4.33;100.00;95513.72;4993951;28;20485;-63
2022/01/16 05:00:52;;;;;;;142.13;20.42;;;;;;;-4.34;100.00;95518.13;4993715;28;20026;-60
2022/01/16 05:03:17;;;;;;;115.97;19.55;;;;;;;-4.31;100.00;95517.81;4992638;28;20058;-60
2022/01/16 05:05:43;;;;;;;115.10;20.42;;;;;;;-4.27;100.00;95521.72;4993789;28;20050;-59
2022/01/16 05:08:08;;;;;;;142.23;20.17;;;;;;;-4.24;100.00;95525.81;5004013;28;20080;-63
2022/01/16 05:10:33;;;;;;;85.57;18.77;;;;;;;-4.22;100.00;95518.63;4996357;28;20682;-60
2022/01/16 05:13:27;;;;;;;126.03;20.05;;;;;;;-4.22;100.00;95521.25;4993715;28;20035;-60
2022/01/16 05:18:37;;;;;;;87.43;19.02;;;;;;;-4.24;100.00;95531.03;4993408;28;20088;-59
2022/01/16 05:21:03;;;;;;;122.38;19.83;;;;;;;-4.26;100.00;95527.75;4993243;28;20500;-60
2022/01/16 05:23:29;;;;;;;162.10;20.63;;;;;;;-4.24;100.00;95531.84;4993355;28;20066;-58
2022/01/16 05:25:54;;;;;;;64.78;20.42;;;;;;;-4.20;100.00;95537.59;4993636;28;20473;-59
2022/01/16 05:28:20;;;;;;;99.68;20.75;;;;;;;-4.17;100.00;95532.84;4992118;28;20037;-58
2022/01/16 05:30:46;;;;;;;146.00;20.83;;;;;;;-4.14;100.00;95537.75;4993318;28;20026;-58
2022/01/16 05:33:11;;;;;;;156.63;20.13;;;;;;;-4.16;100.00;95549.34;4993148;28;20026;-64
2022/01/16 05:35:39;;;;;;;86.85;19.98;;;;;;;-4.13;100.00;95554.25;4993055;28;20440;-61
2022/01/16 05:38:05;;;;;;;83.93;20.40;;;;;;;-4.11;100.00;95562.78;4993081;28;20022;-61
2022/01/16 05:40:30;;;;;;;192.13;21.95;;;;;;;-4.12;100.00;95551.50;4992701;28;20555;-62
2022/01/16 05:42:56;;;;;;;124.63;21.45;;;;;;;-4.13;100.00;95547.22;4991747;28;20062;-60
2022/01/16 05:45:22;;;;;;;127.68;21.15;;;;;;;-4.16;100.00;95554.59;4993009;28;20112;-63
2022/01/16 05:47:50;;;;;;;147.07;21.70;;;;;;;-4.16;100.00;95557.19;4991595;28;20037;-61
2022/01/16 05:50:16;;;;;;;187.95;21.70;;;;;;;-4.18;100.00;95551.31;4992771;28;20026;-62
2022/01/16 05:52:42;;;;;;;158.50;21.30;;;;;;;-4.18;100.00;95556.56;4992737;28;20500;-61
2022/01/16 05:55:08;;;;;;;114.78;20.80;;;;;;;-4.18;100.00;95559.97;4992680;28;20041;-59
2022/01/16 05:57:34;;;;;;;133.75;20.50;;;;;;;-4.18;100.00;95557.38;4992862;28;20033;-57
2022/01/16 05:59:59;;;;;;;125.72;20.52;;;;;;;-4.21;100.00;95560.31;4991568;28;20030;-61
2022/01/16 06:02:25;;;;;;;184.68;21.40;;;;;;;-4.21;100.00;95555.09;4991477;28;20030;-57
2022/01/16 06:04:51;;;;;;;148.63;20.92;;;;;;;-144.43;100.00;64487.81;4992750;28;20130;-54
2022/01/16 06:07:17;;;;;;;168.85;20.75;;;;;;;-144.43;100.00;64487.81;4996155;28;20017;-65
2022/01/16 06:09:42;;;;;;;145.63;20.88;;;;;;;-144.43;100.00;64487.81;5000965;28;20030;-59
2022/01/16 06:12:08;;;;;;;108.00;22.10;;;;;;;-144.43;100.00;64487.81;4992569;28;20466;-59
2022/01/16 06:14:33;;;;;;;124.40;21.38;;;;;;;-144.43;100.00;64487.81;4992626;28;20097;-61
2022/01/16 06:16:59;;;;;;;88.88;20.58;;;;;;;-144.43;100.00;64487.81;4992306;28;20034;-58
2022/01/16 06:19:24;;;;;;;90.85;19.90;;;;;;;-144.43;100.00;64487.81;4992221;28;20030;-63
2022/01/16 06:21:49;;;;;;;78.07;19.73;;;;;;;-144.43;100.00;64487.81;4992272;28;20033;-61
2022/01/16 06:24:15;;;;;;;122.25;20.58;;;;;;;-144.43;100.00;64487.81;4991979;28;20504;-59
2022/01/16 06:26:41;;;;;;;129.85;21.33;;;;;;;-144.43;100.00;64487.81;4990866;28;20214;-60
2022/01/16 06:29:07;;;;;;;106.70;20.60;;;;;;;-144.43;100.00;64487.81;4990852;28;20058;-61
2022/01/16 06:31:32;;;;;;;74.82;21.60;;;;;;;-144.43;100.00;64487.81;4992057;28;20452;-60
2022/01/16 06:34:04;;;;;;;59.15;20.33;;;;;;;-144.43;100.00;64487.81;4992017;28;20432;-61
2022/01/16 06:36:29;;;;;;;95.38;21.23;;;;;;;-144.43;100.00;64487.81;4992047;28;20049;-58
2022/01/16 06:38:56;;;;;;;70.28;21.27;;;;;;;-144.43;100.00;64487.81;4992237;28;20541;-58
2022/01/16 06:41:24;;;;;;;77.22;20.98;;;;;;;-144.43;100.00;64487.81;4991841;28;20050;-61
2022/01/16 06:43:50;;;;;;;80.85;19.42;;;;;;;-144.43;100.00;64487.81;4991666;28;20026;-61
2022/01/16 06:46:15;;;;;;;52.97;19.25;;;;;;;-144.43;100.00;64487.81;4991695;28;20102;-58
2022/01/16 06:48:40;;;;;;;61.72;21.98;;;;;;;-144.43;100.00;64487.81;4990536;28;20057;-60
2022/01/16 06:51:06;;;;;;;59.65;20.98;;;;;;;-144.43;100.00;64487.81;4990545;28;20026;-59
2022/01/16 06:53:32;;;;;;;163.98;22.98;;;;;;;-144.43;100.00;64487.81;4991906;28;20057;-60
2022/01/16 06:55:57;;;;;;;46.00;21.52;;;;;;;-144.43;100.00;64487.81;4991879;28;20062;-61
2022/01/16 06:58:23;;;;;;;79.78;21.17;;;;;;;-144.43;100.00;64487.81;5011430;28;20021;-61
2022/01/16 07:00:48;;;;;;;146.07;23.02;;;;;;;-144.43;100.00;64487.81;4998055;28;20053;-59
2022/01/16 07:03:14;;;;;;;111.72;21.25;;;;;;;-144.43;100.00;64487.81;4990805;28;20022;-64
2022/01/16 07:05:41;;;;;;;84.80;19.92;;;;;;;-4.29;100.00;95567.31;4844596;28;20121;-57
2022/01/16 07:08:06;;;;;;;75.97;22.15;;;;;;;-4.29;100.00;95589.06;5010791;28;20018;-59
2022/01/16 07:10:32;;;;;;;82.50;20.08;;;;;;;-4.30;100.00;95595.28;4993680;28;20076;-60
2022/01/16 07:12:57;;;;;;;134.00;23.08;;;;;;;-4.31;100.00;95596.25;4991317;28;20026;-63
2022/01/16 07:15:22;;;;;;;137.10;21.67;;;;;;;-4.39;100.00;95589.22;4990399;28;20026;-61
2022/01/16 07:17:48;;;;;;;119.40;22.45;;;;;;;-4.43;100.00;95600.16;4990733;28;20033;-61
2022/01/16 07:20:15;;;;;;;89.70;22.15;;;;;;;-144.43;100.00;64487.81;4989523;28;20022;-58
2022/01/16 07:22:40;;;;;;;133.95;20.10;;;;;;;-144.43;100.00;64487.81;4989404;28;20030;-58
2022/01/16 07:25:06;;;;;;;109.60;20.17;;;;;;;-144.43;100.00;64487.81;5007047;28;20033;-57
2022/01/16 07:27:31;;;;;;;145.02;20.70;;;;;;;-144.43;100.00;64487.81;5010552;28;20420;-59
2022/01/16 07:29:56;;;;;;;174.52;21.17;;;;;;;-4.45;100.00;95599.47;5008637;28;20493;-57
2022/01/16 07:32:22;;;;;;;62.63;20.77;;;;;;;-4.44;100.00;95601.94;5008923;28;20044;-58
2022/01/16 07:34:47;;;;;;;103.70;21.98;;;;;;;-4.43;100.00;95605.38;5010192;28;20440;-57
2022/01/16 07:37:13;;;;;;;110.80;21.60;;;;;;;-4.42;100.00;95618.28;5010158;28;20030;-63
2022/01/16 07:39:38;;;;;;;92.28;24.15;;;;;;;-4.40;100.00;95623.38;5008472;28;20048;-58
2022/01/16 07:42:04;;;;;;;59.38;20.98;;;;;;;-4.37;100.00;95634.31;5009018;28;20026;-59
2022/01/16 07:44:30;;;;;;;55.75;21.25;;;;;;;-4.32;100.00;95622.56;5009938;28;20036;-60
2022/01/16 07:46:55;;;;;;;74.35;20.60;;;;;;;-4.31;100.00;95627.63;5008593;28;20022;-59
2022/01/16 07:49:21;;;;;;;75.88;21.05;;;;;;;-4.29;100.00;95623.06;5009838;28;20021;-58
2022/01/16 07:51:46;;;;;;;68.38;22.73;;;;;;;-4.25;100.00;95628.78;5010053;28;20049;-63
2022/01/16 07:54:11;;;;;;;62.72;21.30;;;;;;;-4.21;100.00;95636.16;5009999;28;20033;-61
2022/01/16 07:56:37;;;;;;;44.95;20.90;;;;;;;-4.19;100.00;95644.66;5009801;28;20130;-59
2022/01/16 07:59:02;;;;;;;66.45;22.42;;;;;;;-4.19;100.00;95641.22;5007695;28;20030;-64
2022/01/16 08:01:27;;;;;;;46.25;21.25;;;;;;;-4.15;100.00;95635.50;5001163;28;20121;-60
2022/01/16 08:03:53;;;;;;;49.85;21.55;;;;;;;-4.10;100.00;95624.56;4994193;28;20493;-64
2022/01/16 08:06:18;;;;;;;72.68;21.88;;;;;;;-4.07;100.00;95616.41;4988939;28;20477;-61
2022/01/16 08:08:44;;;;;;;72.95;20.17;;;;;;;-4.06;100.00;95623.25;5002725;28;20030;-59
2022/01/16 08:11:10;;;;;;;55.80;21.13;;;;;;;-4.06;100.00;95618.03;4995909;28;20430;-60
2022/01/16 08:13:37;;;;;;;52.22;22.65;;;;;;;-4.06;100.00;95618.03;5009654;28;20018;-64
2022/01/16 08:16:06;;;;;;;62.22;23.15;;;;;;;-4.02;100.00;95624.56;5011776;28;20400;-60
2022/01/16 08:18:32;;;;;;;58.35;23.55;;;;;;;-4.02;100.00;95632.41;5011925;28;20033;-55
2022/01/16 08:20:58;;;;;;;61.90;22.20;;;;;;;-4.01;100.00;95639.31;5002816;28;20050;-61
2022/01/16 08:23:24;;;;;;;64.05;21.05;;;;;;;-4.04;100.00;95634.38;4993593;28;20467;-61
2022/01/16 08:25:50;;;;;;;55.92;22.08;;;;;;;-3.99;100.00;95633.91;5006869;28;20452;-61
2022/01/16 08:28:16;;;;;;;56.65;21.90;;;;;;;-3.96;100.00;95646.66;5012969;28;20033;-61
2022/01/16 08:30:41;;;;;;;49.92;21.40;;;;;;;-3.93;100.00;95648.94;5003198;28;20397;-59
2022/01/16 08:33:07;;;;;;;122.47;22.92;;;;;;;-3.97;100.00;95638.00;4993566;28;20046;-63
2022/01/16 08:35:32;;;;;;;66.45;21.00;;;;;;;-3.96;100.00;95642.25;4993386;28;20457;-60
2022/01/16 08:37:58;;;;;;;136.75;22.10;;;;;;;-4.02;100.00;95649.91;4992218;28;20022;-56
2022/01/16 08:40:24;;;;;;;87.30;20.83;;;;;;;-4.09;100.00;95662.84;5003516;28;20053;-63
2022/01/16 08:42:51;;;;;;;73.57;21.15;;;;;;;-4.03;100.00;95664.78;5007592;28;20041;-65
2022/01/16 08:45:17;;;;;;;69.38;22.45;;;;;;;-3.96;100.00;95662.38;5010615;28;20409;-61
2022/01/16 08:47:43;;;;;;;75.05;21.63;;;;;;;-3.91;100.00;95668.75;5012638;28;20037;-60
2022/01/16 08:50:10;;;;;;;96.43;20.77;;;;;;;-3.97;100.00;95674.63;5011362;28;20079;-63
2022/01/16 08:52:35;;;;;;;74.30;22.33;;;;;;;-3.98;100.00;95680.84;5012649;28;20052;-61
2022/01/16 08:55:02;;;;;;;111.53;22.38;;;;;;;-3.97;100.00;95685.09;5011158;28;20480;-61
2022/01/16 08:57:27;;;;;;;151.82;22.33;;;;;;;-3.99;100.00;95694.09;5012354;28;20022;-62
2022/01/16 08:59:53;;;;;;;127.05;23.02;;;;;;;-4.01;100.00;95682.97;5010994;28;20044;-61
2022/01/16 09:02:18;;;;;;;121.90;21.15;;;;;;;-3.92;100.00;95690.66;5010229;28;20113;-62
2022/01/16 09:04:44;;;;;;;147.73;21.88;;;;;;;-3.96;100.00;95689.34;5011347;28;20056;-62
2022/01/16 09:07:09;;;;;;;122.55;20.80;;;;;;;-3.96;100.00;95693.75;5011579;28;20022;-60
2022/01/16 09:09:35;;;;;;;114.80;21.23;;;;;;;-4.00;100.00;95697.69;5005216;28;20038;-61
2022/01/16 09:12:00;;;;;;;95.35;21.45;;;;;;;-3.85;100.00;95702.13;5002200;28;20076;-63
2022/01/16 09:14:25;;;;;;;75.43;18.80;;;;;;;-3.77;100.00;95700.50;4991761;28;20026;-60
2022/01/16 09:16:51;;;;;;;116.18;20.67;;;;;;;-3.72;100.00;95700.84;4992800;28;20094;-59
2022/01/16 09:19:16;;;;;;;132.85;21.00;;;;;;;-3.72;100.00;95706.06;4959499;28;21663;-64
2022/01/16 09:21:42;;;;;;;105.35;19.40;;;;;;;-3.70;100.00;95704.09;4984325;28;20022;-59
2022/01/16 09:24:07;;;;;;;83.20;20.42;;;;;;;-3.67;100.00;95696.75;5000850;28;20071;-60
2022/01/16 09:26:33;;;;;;;69.20;20.15;;;;;;;-3.64;100.00;95706.91;4994705;28;20489;-64
2022/01/16 09:28:58;;;;;;;81.80;21.58;;;;;;;-3.58;100.00;95706.28;4994328;28;20030;-64
2022/01/16 09:31:23;;;;;;;46.90;20.80;;;;;;;-3.50;100.00;95710.69;5011998;28;20121;-60
2022/01/16 09:33:49;;;;;;;42.70;20.27;;;;;;;-3.41;100.00;95712.31;5005172;28;20476;-61
2022/01/16 09:36:14;;;;;;;45.45;22.33;;;;;;;-3.36;100.00;95711.84;5007747;28;20052;-62
2022/01/16 09:38:40;;;;;;;49.33;20.63;;;;;;;-3.33;100.00;95711.50;5009374;28;20080;-63
2022/01/16 09:41:06;;;;;;;45.75;22.15;;;;;;;-3.32;100.00;95721.81;5007515;28;20128;-64
2022/01/16 09:43:34;;;;;;;45.28;22.52;;;;;;;-3.31;100.00;95723.47;5005896;28;20034;-56
2022/01/16 09:46:00;;;;;;;44.80;21.83;;;;;;;-3.20;100.00;95711.84;5003655;28;20022;-62
2022/01/16 09:48:26;;;;;;;41.38;21.17;;;;;;;-3.12;100.00;95722.31;5008411;28;20026;-65
2022/01/16 09:50:52;;;;;;;51.28;21.95;;;;;;;-3.12;100.00;95722.31;5006883;28;20648;-57
2022/01/16 09:53:17;;;;;;;42.40;21.15;;;;;;;-3.02;100.00;95725.59;5004975;28;20049;-61
2022/01/16 09:55:43;;;;;;;43.15;21.00;;;;;;;-2.86;100.00;95718.69;5009083;28;20049;-61
2022/01/16 09:58:09;;;;;;;42.13;20.08;;;;;;;-2.84;100.00;95714.09;5007891;28;20384;-58
2022/01/16 10:00:34;;;;;;;51.42;22.98;;;;;;;-2.65;100.00;95703.22;5006436;28;20026;-63
2022/01/16 10:03:02;;;;;;;44.33;23.20;;;;;;;-2.49;100.00;95705.00;5001376;28;20052;-67
2022/01/16 10:05:29;;;;;;;41.80;22.65;;;;;;;-2.30;100.00;95701.16;5008020;28;20049;-64
2022/01/16 10:07:57;;;;;;;45.22;23.38;;;;;;;-2.07;100.00;95696.78;5008346;28;20030;-64
2022/01/16 10:10:31;;;;;;;45.10;22.25;;;;;;;-1.82;100.00;95686.97;5005348;28;20563;-65
2022/01/16 10:13:05;;;;;;;53.00;23.95;;;;;;;-1.70;100.00;95693.47;5009705;28;20137;-63
2022/01/16 10:15:31;;;;;;;51.38;25.75;;;;;;;-1.77;100.00;95687.25;5000104;28;20077;-63
2022/01/16 10:17:59;;;;;;;45.60;23.27;;;;;;;-1.69;100.00;95687.22;4996838;28;20027;-63
2022/01/16 10:20:27;;;;;;;48.03;22.33;;;;;;;-1.85;100.00;95689.94;5009022;28;20025;-63
2022/01/16 10:22:56;;;;;;;44.17;21.08;;;;;;;-1.87;100.00;95681.41;5009795;28;20034;-66
2022/01/16 10:25:47;;;;;;;42.78;21.75;;;;;;;-1.66;100.00;95663.22;5002475;28;20029;-65
2022/01/16 10:28:33;;;;;;;44.08;21.38;;;;;;;-1.41;100.00;95650.75;4997816;28;20072;-64
2022/01/16 10:30:59;;;;;;;45.05;22.98;;;;;;;-1.15;100.00;95654.78;5008042;28;20052;-65
2022/01/16 10:33:27;;;;;;;40.13;22.02;;;;;;;-0.94;100.00;95654.91;5002750;28;20528;-64
2022/01/16 10:35:55;;;;;;;41.88;20.88;;;;;;;-0.81;100.00;95646.41;4980770;28;20117;-63
2022/01/16 10:38:31;;;;;;;38.95;20.60;;;;;;;-0.86;100.00;95643.50;5003323;28;20050;-63
2022/01/16 10:40:59;;;;;;;39.47;19.98;;;;;;;-0.67;100.00;95656.09;4989705;28;20046;-65
2022/01/16 10:43:45;;;;;;;34.67;18.15;;;;;;;-0.67;100.00;95653.47;4991130;28;20054;-60
2022/01/16 10:46:13;;;;;;;37.03;19.55;;;;;;;-0.63;100.00;95652.94;4991071;28;20247;-63
2022/01/16 10:48:40;;;;;;;35.20;18.42;;;;;;;-0.38;100.00;95647.38;4989987;28;20057;-63
2022/01/16 10:51:18;;;;;;;32.53;17.75;;;;;;;-0.25;100.00;95647.56;4990962;28;20033;-60
2022/01/16 10:53:46;;;;;;;32.45;17.23;;;;;;;-0.11;100.00;95632.72;5006131;28;20040;-61
2022/01/16 10:56:12;;;;;;;35.92;18.27;;;;;;;-0.06;100.00;95639.06;4989338;28;20092;-60
2022/01/16 10:58:43;;;;;;;34.17;17.45;;;;;;;0.10;100.00;95634.56;4989610;28;20050;-63
2022/01/16 11:01:13;;;;;;;34.22;18.67;;;;;;;0.17;100.00;95630.19;4990925;28;20022;-63
2022/01/16 11:03:51;;;;;;;34.53;18.13;;;;;;;0.38;100.00;95622.31;4989579;28;20033;-62
2022/01/16 11:06:21;;;;;;;30.95;16.60;;;;;;;0.53;100.00;95606.41;4989626;28;20026;-66
2022/01/16 11:08:57;;;;;;;33.55;17.30;;;;;;;0.61;100.00;95602.84;5003763;28;20073;-65
2022/01/16 11:11:27;;;;;;;32.65;17.17;;;;;;;0.68;100.00;95601.91;4989601;28;20029;-65
2022/01/16 11:13:54;;;;;;;30.83;17.33;;;;;;;0.85;100.00;95610.34;4989720;28;20106;-64
2022/01/16 11:16:22;;;;;;;31.02;17.20;;;;;;;1.02;100.00;95608.22;4989606;28;20400;-65
2022/01/16 11:18:49;;;;;;;34.45;17.95;;;;;;;1.24;100.00;95608.97;4989334;28;20068;-65
2022/01/16 11:21:20;;;;;;;31.00;17.95;;;;;;;1.22;100.00;95611.00;4989130;28;20483;-65
2022/01/16 11:26:13;;;;;;;30.33;16.00;;;;;;;1.70;100.00;95598.66;4991014;28;20033;-66
2022/01/16 11:28:39;;;;;;;30.58;16.77;;;;;;;1.91;100.00;95590.59;4989336;28;20462;-67
2022/01/16 11:31:06;;;;;;;32.28;16.70;;;;;;;1.94;100.00;95578.81;4989544;28;20057;-66
2022/01/16 11:33:34;;;;;;;30.00;16.55;;;;;;;2.11;100.00;95566.88;4990610;28;20029;-66
2022/01/16 11:36:13;;;;;;;31.02;16.67;;;;;;;2.25;100.00;95557.97;4989276;28;20034;-68
2022/01/16 11:38:41;;;;;;;29.95;16.05;;;;;;;2.22;100.00;95549.63;4991982;28;20089;-66
2022/01/16 11:41:16;;;;;;;29.90;15.20;;;;;;;2.38;100.00;95543.94;4990658;28;20046;-66
2022/01/16 11:43:46;;;;;;;29.55;16.13;;;;;;;2.57;100.00;95539.69;4990393;28;20512;-68
2022/01/16 11:46:17;;;;;;;31.58;16.08;;;;;;;2.76;100.00;95530.13;4993433;28;20014;-66